Date,TemperatureHighF,TemperatureAvgF,TemperatureLowF,DewpointHighF,DewpointAvgF,DewpointLowF,HumidityHigh,HumidityAvg,HumidityLow,PressureMaxIn,PressureMinIn,WindSpeedMaxMPH,WindSpeedAvgMPH,GustSpeedMaxMPH,PrecipitationSumIn
2012-1-1,62.9,46.3,32.4,55.5,37.8,26.0,96,75,39,30.11,29.93,26,5,31,0.01
2012-1-2,42.2,34.3,23.6,25.9,13.0,4.3,70,42,25,30.17,29.99,33,11,35,0.01
2012-1-3,30.5,23.8,18.4,12.0,7.5,3.4,65,50,36,30.38,30.16,23,7,32,0.00
2012-1-4,46.4,31.4,14.1,28.4,12.9,-4.1,85,52,13,30.36,30.14,16,4,21,0.00
2012-1-5,58.7,43.8,31.9,31.9,25.0,14.4,87,52,20,30.15,30.05,15,3,23,0.00
2012-1-6,62.9,43.1,27.1,34.6,26.4,20.6,91,58,21,30.09,29.98,16,3,23,0.00
2012-1-7,57.6,49.3,38.0,53.6,45.9,29.2,100,88,69,30.08,29.97,8,2,11,0.25
2012-1-8,53.3,50.5,46.6,52.7,50.0,45.8,99,98,97,30.16,30.06,4,0,6,0.68
2012-1-9,58.5,54.0,51.7,56.8,53.3,51.4,99,97,89,30.12,30.00,9,1,13,0.21
2012-1-10,58.6,54.1,49.7,56.4,53.1,49.2,99,97,91,30.01,29.81,6,1,11,0.31
2012-1-11,60.0,51.6,44.9,55.5,49.9,42.8,98,94,65,29.80,29.41,30,6,45,0.62
2012-1-12,50.0,42.5,26.4,46.0,37.9,13.5,96,84,53,29.83,29.52,27,6,36,0.02
2012-1-13,32.8,26.8,24.2,19.2,16.4,13.7,74,65,53,30.15,29.83,23,6,33,0.00
2012-1-14,45.1,33.6,22.8,27.0,18.7,12.5,79,56,33,30.25,30.05,19,3,25,0.00
2012-1-15,51.3,38.4,29.3,27.6,22.3,10.0,78,55,19,30.42,30.11,15,4,25,0.00
2012-1-16,47.3,38.3,27.2,32.2,27.1,21.9,85,65,49,30.50,30.31,7,1,8,0.00
2012-1-17,52.3,43.8,36.8,51.8,41.5,31.3,99,91,76,30.31,29.91,14,1,24,0.98
2012-1-18,51.2,38.4,28.1,47.7,27.4,19.8,88,66,41,30.06,29.91,18,4,22,0.00
2012-1-19,45.6,33.0,24.5,30.0,24.7,21.1,91,73,46,30.17,30.03,8,1,10,0.00
2012-1-20,45.4,41.3,34.1,44.5,39.5,30.0,97,93,83,30.08,29.97,7,0,9,0.71
2012-1-21,58.2,49.2,42.1,55.8,48.3,41.3,99,96,90,30.00,29.82,9,1,18,0.61
2012-1-22,48.4,44.3,39.7,48.1,43.2,38.7,99,96,93,30.16,29.99,13,2,15,0.21
2012-1-23,46.3,41.9,37.9,45.8,41.1,37.1,98,97,94,30.11,29.97,9,2,15,0.79
2012-1-24,63.9,47.7,35.0,46.5,36.0,26.9,99,71,25,30.18,30.01,12,2,16,0.01
2012-1-25,60.1,47.1,31.3,40.5,34.9,28.4,90,65,41,30.26,30.10,11,2,13,0.00
2012-1-26,58.5,54.1,52.5,57.2,50.2,40.2,98,88,62,30.10,29.61,14,2,17,0.41
2012-1-27,58.8,48.4,34.2,57.0,41.4,31.6,96,78,51,29.98,29.59,23,5,33,0.16
2012-1-28,57.7,39.8,27.6,40.2,29.8,16.7,97,71,41,30.24,29.95,23,4,30,0.01
2012-1-29,50.3,35.0,22.0,24.6,16.9,-0.4,89,55,15,30.36,30.23,30,3,30,0.00
2012-1-30,56.7,39.2,24.3,27.2,21.5,16.5,87,55,21,30.40,30.30,17,2,21,0.00
2012-1-31,61.4,43.5,27.8,32.9,25.6,20.6,87,55,22,30.38,30.25,14,1,18,0.00
2012-2-1,56.6,47.2,39.7,49.5,42.7,30.6,98,85,63,30.26,30.05,8,1,9,0.31
2012-2-2,64.8,53.4,41.1,50.7,41.8,29.7,98,70,28,30.22,29.98,15,3,20,0.01
2012-2-3,57.4,48.6,33.5,34.3,30.7,24.6,89,53,31,30.38,30.22,17,2,22,0.00
2012-2-4,52.9,48.3,42.8,51.3,43.9,32.0,98,86,51,30.27,29.97,5,1,10,0.76
2012-2-5,63.7,53.1,41.4,55.6,47.4,39.3,100,83,56,30.06,29.94,13,2,21,0.10
2012-2-6,52.9,45.4,36.1,43.3,39.5,34.3,96,81,64,30.16,30.06,10,2,13,0.00
2012-2-7,60.3,42.4,30.5,38.5,30.5,22.5,97,69,25,30.15,30.05,11,2,16,0.01
2012-2-8,52.1,43.8,36.5,36.1,31.4,26.2,84,62,45,30.15,30.06,26,5,30,0.00
2012-2-9,50.8,37.7,27.5,31.2,28.5,24.7,89,71,46,30.24,30.13,13,2,16,0.00
2012-2-10,47.5,38.0,28.1,35.5,29.6,26.2,94,74,48,30.15,29.90,12,2,14,0.00
2012-2-11,42.2,31.3,20.2,32.1,18.9,5.0,79,60,44,30.22,29.82,30,11,42,0.01
2012-2-12,37.7,25.9,14.9,14.2,8.2,4.7,70,48,30,30.35,30.22,21,5,30,0.00
2012-2-13,48.8,33.6,18.3,25.4,16.4,12.5,84,54,25,30.26,30.07,14,2,16,0.00
2012-2-14,42.7,37.4,34.1,39.0,34.1,22.7,98,89,46,30.09,29.98,10,1,16,0.08
2012-2-15,64.1,45.7,28.2,41.8,35.2,27.5,98,72,35,30.23,30.08,14,1,15,0.00
2012-2-16,60.1,49.5,43.3,54.7,45.4,39.8,97,86,66,30.15,29.95,12,2,16,0.29
2012-2-17,63.4,49.0,35.0,46.2,39.5,34.1,98,73,41,30.09,29.98,10,2,12,0.01
2012-2-18,57.9,49.5,38.7,47.2,42.6,36.6,96,78,59,30.03,29.83,9,1,14,0.10
2012-2-19,47.4,44.1,32.6,45.9,41.9,30.5,96,92,79,29.92,29.60,18,3,21,0.38
2012-2-20,53.4,39.9,28.8,36.7,29.7,21.7,97,71,30,30.22,29.92,11,2,14,0.00
2012-2-21,54.5,41.2,32.2,41.5,34.5,27.1,95,77,61,30.25,30.00,5,1,7,0.00
2012-2-22,61.8,50.4,36.9,53.2,45.1,35.8,98,83,57,30.00,29.57,21,5,28,0.05
2012-2-23,72.4,62.3,52.8,57.9,54.5,51.1,98,78,48,29.63,29.49,24,6,28,0.07
2012-2-24,69.0,57.8,38.9,59.9,43.6,9.9,84,62,17,29.97,29.54,33,10,40,0.00
2012-2-25,50.4,40.7,32.4,22.2,17.8,10.4,59,41,21,30.27,29.97,22,7,37,0.00
2012-2-26,53.8,40.3,26.4,26.6,21.9,18.0,78,50,29,30.42,30.26,14,2,15,0.00
2012-2-27,63.3,50.2,43.4,49.5,41.0,25.9,91,72,47,30.37,30.23,12,2,15,0.00
2012-2-28,64.7,50.9,36.7,51.7,43.2,34.9,96,78,44,30.33,30.19,12,2,18,0.11
2012-2-29,62.5,56.6,52.3,59.9,55.3,51.4,98,95,87,30.18,29.83,13,2,21,0.44
2012-3-1,71.8,61.2,50.2,60.2,46.7,32.3,98,66,24,29.87,29.77,21,4,26,0.12
2012-3-2,71.9,60.9,50.3,62.0,55.3,42.5,98,83,60,29.82,29.56,32,6,32,0.84
2012-3-3,58.8,50.7,44.8,57.1,34.7,13.5,97,60,21,29.77,29.57,17,5,27,1.15
2012-3-4,47.1,40.6,31.5,26.0,20.5,14.1,79,46,30,30.00,29.72,23,6,37,0.00
2012-3-5,49.1,41.3,29.9,28.6,20.7,11.7,83,46,24,30.43,29.92,27,6,37,0.00
2012-3-6,54.9,40.5,25.3,26.2,22.4,17.7,89,52,28,30.57,30.43,12,2,20,0.00
2012-3-7,59.5,51.3,43.2,47.4,40.0,22.6,81,66,41,30.54,30.33,11,2,14,0.00
2012-3-8,68.4,58.5,49.7,55.9,50.8,46.7,93,77,54,30.33,30.01,17,3,22,0.34
2012-3-9,59.8,53.9,45.9,53.5,38.3,21.7,97,62,26,30.24,30.03,13,3,19,0.55
2012-3-10,62.1,46.9,31.1,33.2,26.4,22.7,85,49,23,30.41,30.23,13,2,16,0.00
2012-3-11,62.0,51.0,39.9,43.8,35.2,24.5,65,55,45,30.47,30.30,11,3,19,0.00
2012-3-12,56.3,53.6,51.4,52.9,50.0,43.0,96,88,61,30.34,30.19,8,1,9,0.16
2012-3-13,73.3,60.5,53.4,60.2,54.0,51.3,99,82,47,30.20,30.07,21,3,21,0.23
2012-3-14,77.0,62.3,46.3,58.7,49.4,45.0,98,68,33,30.19,30.08,13,3,18,0.00
2012-3-15,76.3,60.9,47.6,59.1,51.2,45.5,95,73,40,30.20,30.08,15,1,25,0.08
2012-3-16,76.3,62.0,49.9,58.0,53.7,49.1,98,77,41,30.23,30.03,17,3,22,0.09
2012-3-17,76.5,63.2,55.3,61.6,55.0,51.1,96,77,45,30.19,30.05,16,2,17,0.35
2012-3-18,77.9,65.8,54.8,60.5,54.4,49.9,94,70,40,30.21,30.06,13,2,18,0.00
2012-3-19,79.5,65.4,52.4,59.2,54.5,50.4,94,71,41,30.13,30.00,13,2,19,0.00
2012-3-20,78.4,66.4,54.6,61.1,55.1,52.3,93,70,43,30.11,29.99,13,2,17,0.00
2012-3-21,72.3,66.2,59.9,58.1,55.9,54.4,87,70,55,30.15,30.06,13,3,15,0.00
2012-3-22,71.3,64.8,62.0,62.9,59.6,55.7,96,84,69,30.15,30.04,12,1,13,0.03
2012-3-23,69.4,63.8,60.0,62.7,59.9,56.6,94,87,68,30.06,29.86,25,3,34,0.01
2012-3-24,66.6,60.9,51.7,59.5,50.4,41.8,95,71,42,29.86,29.70,16,3,24,0.00
2012-3-25,69.0,57.6,47.4,47.1,44.3,41.0,88,64,40,29.85,29.71,22,4,26,0.00
2012-3-26,80.1,65.8,52.8,50.4,45.1,37.7,81,51,23,29.96,29.83,15,4,21,0.00
2012-3-27,70.8,59.4,49.0,45.1,41.6,34.6,81,54,35,30.19,29.96,12,2,18,0.00
2012-3-28,75.5,60.6,46.2,56.8,48.1,42.7,90,67,41,30.16,29.93,17,3,32,0.00
2012-3-29,78.3,65.4,51.0,55.8,51.4,47.6,90,63,35,29.95,29.81,14,2,19,0.00
2012-3-30,74.1,62.4,51.4,58.8,53.9,50.0,96,76,48,29.91,29.78,13,2,20,0.44
2012-3-31,74.8,63.8,56.5,59.5,56.5,49.8,98,80,43,29.81,29.69,13,2,19,0.64
2012-4-1,79.9,64.6,49.8,59.1,53.1,44.7,98,72,29,29.82,29.70,19,3,26,0.01
2012-4-2,83.7,69.4,55.1,60.9,56.3,52.5,96,67,35,29.80,29.68,20,3,28,0.00
2012-4-3,77.9,64.3,56.9,63.9,59.7,55.8,97,86,58,29.88,29.77,10,1,13,0.88
2012-4-4,78.6,64.3,51.0,62.8,55.5,50.2,99,77,39,29.85,29.61,17,2,23,0.01
2012-4-5,73.6,63.9,54.8,61.1,55.8,47.5,97,77,47,29.65,29.52,13,2,20,0.00
2012-4-6,59.9,52.7,46.2,52.3,48.7,43.5,97,87,63,30.03,29.63,11,1,11,0.08
2012-4-7,67.6,53.5,39.7,49.2,43.7,38.9,98,73,44,30.23,30.03,18,3,22,0.01
2012-4-8,74.4,58.2,42.0,50.7,43.8,36.9,96,65,27,30.14,29.97,17,3,22,0.00
2012-4-9,73.5,60.0,44.5,45.4,33.3,13.1,72,42,10,30.05,29.91,18,3,24,0.00
2012-4-10,68.7,57.1,44.1,48.2,39.1,31.2,74,52,36,29.98,29.87,17,3,25,0.00
2012-4-11,59.6,51.6,44.0,34.1,23.1,16.9,49,33,20,30.07,29.89,23,7,28,0.00
2012-4-12,60.8,44.9,28.4,34.7,29.4,24.9,94,59,31,30.20,30.06,15,2,18,0.00
2012-4-13,68.2,52.1,33.7,43.0,36.0,32.0,96,60,28,30.19,30.10,13,1,13,0.00
2012-4-14,71.3,56.2,41.7,48.2,43.0,38.2,88,64,38,30.26,30.10,18,2,18,0.00
2012-4-15,75.2,59.1,45.1,60.5,51.9,42.4,94,78,53,30.17,30.05,13,2,17,0.00
2012-4-16,70.4,63.3,57.0,62.8,58.9,55.5,96,86,73,30.15,30.05,15,2,17,0.00
2012-4-17,76.7,62.7,52.4,63.6,57.6,51.6,98,85,54,30.11,29.96,9,1,16,0.25
2012-4-18,58.9,56.5,54.0,58.0,55.3,53.2,97,96,92,30.01,29.96,7,1,11,1.03
2012-4-19,63.4,56.7,52.5,57.3,54.0,52.0,100,91,77,30.01,29.91,6,0,7,0.00
2012-4-20,64.1,58.0,54.9,58.8,55.3,53.0,97,91,81,29.94,29.77,8,1,12,0.02
2012-4-21,71.7,61.6,55.4,61.5,57.3,54.2,98,87,60,29.82,29.61,7,1,11,0.01
2012-4-22,58.1,52.9,44.9,54.3,42.6,30.5,97,70,44,29.66,29.53,20,6,28,0.00
2012-4-23,54.3,45.5,39.6,30.9,27.4,21.8,69,50,30,29.81,29.63,23,7,33,0.00
2012-4-24,61.0,48.9,35.9,42.2,34.4,25.7,86,60,35,29.85,29.77,22,4,32,0.00
2012-4-25,75.6,59.5,42.7,59.1,50.2,40.9,95,74,53,29.86,29.78,18,3,19,0.00
2012-4-26,77.1,67.3,58.3,59.9,55.5,53.0,86,68,45,29.87,29.74,22,4,26,0.00
2012-4-27,76.6,67.1,57.3,65.8,60.8,54.5,96,81,59,29.97,29.83,16,2,19,0.00
2012-4-28,79.2,67.9,58.2,64.7,61.5,57.4,98,82,56,30.03,29.93,8,1,12,0.00
2012-4-29,82.3,67.3,55.4,65.1,59.1,54.6,98,78,45,30.06,29.98,11,2,15,0.00
2012-4-30,82.1,68.1,55.6,65.5,59.1,54.6,98,76,45,30.09,29.98,12,2,18,0.00
2012-5-1,82.0,70.7,60.7,67.6,62.9,58.4,94,78,54,30.07,29.95,13,2,15,0.00
2012-5-2,82.5,70.9,60.3,67.1,62.5,57.8,97,77,47,30.07,29.97,10,1,13,0.00
2012-5-3,80.7,69.1,58.2,67.2,62.6,56.9,97,81,55,30.07,29.99,7,1,10,0.00
2012-5-4,78.9,69.0,63.1,67.0,63.3,61.1,96,84,60,30.05,29.90,15,2,16,0.00
2012-5-5,84.0,71.0,57.4,66.5,61.2,56.6,99,74,45,29.93,29.77,16,2,22,0.01
2012-5-6,82.6,69.9,56.5,65.7,61.2,55.1,97,76,53,29.93,29.81,10,1,15,0.00
2012-5-7,73.4,66.5,61.8,67.7,62.6,59.1,95,87,71,29.94,29.82,10,2,15,0.04
2012-5-8,77.9,67.3,61.0,65.6,62.7,59.6,97,86,60,29.87,29.74,17,2,17,0.27
2012-5-9,65.7,60.7,50.3,62.5,56.4,48.5,98,87,57,29.79,29.68,16,1,22,0.07
2012-5-10,68.8,56.4,42.6,51.4,44.5,39.8,98,69,35,29.91,29.76,15,3,19,0.01
2012-5-11,72.6,57.4,42.7,53.7,46.6,41.4,96,71,42,30.13,29.91,10,1,13,0.00
2012-5-12,70.0,62.7,55.4,60.5,55.6,48.6,87,78,66,30.24,30.12,9,1,13,0.00
2012-5-13,63.7,58.7,57.0,60.2,57.4,55.8,98,95,80,30.14,29.95,6,1,13,1.92
2012-5-14,73.5,64.3,59.0,66.4,62.1,58.1,98,93,68,29.95,29.82,12,1,19,0.22
2012-5-15,74.6,62.8,54.6,65.2,59.4,54.0,99,89,67,29.92,29.84,14,1,15,0.02
2012-5-16,78.1,64.5,53.8,63.0,57.4,51.9,99,81,41,29.92,29.82,6,1,9,0.00
2012-5-17,79.5,65.4,53.3,64.9,58.1,52.3,98,80,46,29.94,29.83,7,1,11,0.02
2012-5-18,76.1,65.5,56.0,64.1,59.6,55.2,98,83,54,30.01,29.93,13,1,13,0.00
2012-5-19,78.3,65.7,55.6,65.6,59.1,51.9,98,81,54,30.08,29.96,8,1,11,0.01
2012-5-20,80.2,65.5,53.6,67.3,58.8,52.8,98,81,47,30.07,29.93,9,1,14,0.06
2012-5-21,76.7,64.7,54.9,63.9,58.7,54.0,99,83,52,29.98,29.84,11,1,18,0.01
2012-5-22,74.6,65.4,57.9,63.4,58.9,54.4,97,81,55,29.86,29.74,20,2,20,0.00
2012-5-23,73.6,63.1,54.6,65.2,58.6,53.2,98,86,65,29.84,29.74,13,1,15,0.01
2012-5-24,81.3,67.8,54.8,64.6,59.0,54.0,98,77,43,29.93,29.82,9,1,13,0.01
2012-5-25,85.0,72.8,59.9,69.0,63.2,58.2,95,74,48,30.03,29.91,8,1,12,0.00
2012-5-26,89.7,76.5,60.8,71.8,65.0,58.9,98,70,41,30.07,29.85,7,1,11,0.00
2012-5-27,84.0,73.5,64.8,68.4,64.5,61.8,93,75,49,30.02,29.91,11,1,15,0.00
2012-5-28,84.1,73.8,66.7,67.5,65.1,62.4,91,76,52,29.95,29.83,11,2,15,0.00
2012-5-29,79.3,71.0,65.2,68.8,65.9,63.7,95,84,66,29.88,29.73,9,1,11,0.00
2012-5-30,87.3,71.8,60.1,67.8,59.3,47.4,98,70,26,29.80,29.70,14,2,14,0.16
2012-5-31,81.1,68.6,55.2,69.7,61.9,53.7,96,81,55,29.81,29.68,6,0,10,0.04
2012-6-1,71.6,65.7,58.8,65.1,61.0,50.5,97,86,60,29.79,29.68,15,3,18,0.11
2012-6-2,70.4,59.2,48.7,50.5,47.3,42.6,93,68,38,29.90,29.76,16,3,20,0.00
2012-6-3,78.4,64.9,48.4,64.4,55.1,47.0,98,74,42,29.94,29.80,22,2,22,0.00
2012-6-4,78.9,68.7,62.5,66.1,62.9,59.6,97,83,53,29.81,29.67,11,2,16,0.52
2012-6-5,69.5,63.4,59.2,63.5,61.1,58.1,98,92,77,29.79,29.62,12,1,16,0.21
2012-6-6,75.6,64.0,53.7,62.9,58.3,53.1,99,83,55,29.92,29.76,11,1,12,0.02
2012-6-7,77.3,67.6,60.0,62.2,59.4,55.4,94,77,48,29.98,29.89,10,1,10,0.00
2012-6-8,80.4,67.7,55.4,65.4,60.3,54.3,98,79,50,30.00,29.90,7,1,11,0.00
2012-6-9,79.6,69.7,60.4,64.2,61.0,56.9,96,76,52,30.01,29.91,8,1,15,0.00
2012-6-10,69.2,64.7,62.2,64.8,61.5,58.6,97,90,71,30.02,29.94,7,1,14,0.36
2012-6-11,74.4,67.4,62.8,70.7,66.0,61.4,98,95,84,30.00,29.91,10,1,10,0.17
2012-6-12,81.4,72.7,65.4,71.1,66.9,63.3,99,83,60,29.91,29.81,17,2,20,0.02
2012-6-13,84.7,70.3,60.5,70.3,64.3,59.6,99,83,53,29.90,29.82,9,1,22,1.42
2012-6-14,81.0,69.7,63.0,66.3,62.8,58.0,99,81,55,30.05,29.89,10,1,16,0.01
2012-6-15,79.9,69.6,62.7,66.5,63.0,60.0,91,80,61,30.13,29.99,8,1,11,0.00
2012-6-16,77.7,68.0,58.5,67.1,60.9,56.2,94,79,60,30.18,30.03,7,1,10,0.00
2012-6-17,79.6,67.6,56.5,65.1,60.4,55.7,98,80,54,30.09,29.93,11,1,11,0.00
2012-6-18,82.2,69.4,57.9,64.7,60.5,57.1,98,76,46,30.02,29.94,11,1,12,0.01
2012-6-19,84.6,71.3,58.1,65.9,62.0,57.0,98,75,47,30.11,30.02,8,1,9,0.00
2012-6-20,84.5,71.9,59.4,69.7,63.9,58.4,98,78,51,30.11,29.99,11,1,12,0.00
2012-6-21,86.5,74.0,62.0,72.0,66.0,61.1,98,79,52,30.02,29.84,7,1,14,0.00
2012-6-22,86.7,73.7,63.8,73.0,66.2,62.6,98,79,49,29.90,29.76,8,1,14,0.00
2012-6-23,88.0,74.2,62.7,74.7,67.6,61.8,98,82,43,29.88,29.80,8,1,12,0.00
2012-6-24,88.2,76.9,67.1,74.5,68.8,65.3,95,78,54,29.90,29.78,9,1,10,0.00
2012-6-25,88.8,76.0,67.0,74.2,69.9,65.9,98,83,55,29.80,29.61,9,1,15,0.00
2012-6-26,84.9,73.5,63.9,69.8,62.7,56.0,96,72,46,29.78,29.64,8,1,14,0.00
2012-6-27,86.5,69.5,53.6,65.1,57.1,51.9,95,68,38,29.94,29.78,10,1,12,0.00
2012-6-28,91.2,73.3,54.5,69.2,60.2,53.0,96,69,32,29.99,29.88,13,2,16,0.00
2012-6-29,99.2,81.0,65.7,74.1,63.8,56.9,88,60,29,29.89,29.74,8,1,12,0.00
2012-6-30,100.4,80.9,65.7,73.7,66.7,62.0,91,66,30,29.83,29.74,8,0,9,0.00
2012-7-1,99.0,82.7,67.2,74.4,67.2,60.5,90,64,29,29.95,29.78,9,1,13,0.16
2012-7-2,91.0,75.3,64.9,76.7,69.5,63.5,96,84,55,30.07,29.88,8,2,16,0.27
2012-7-3,94.0,80.6,71.1,76.3,71.0,68.4,96,75,46,29.95,29.83,10,1,13,0.00
2012-7-4,91.9,77.8,67.3,78.1,71.3,65.5,95,81,56,29.94,29.86,9,1,15,0.07
2012-7-5,98.1,80.7,67.2,78.3,70.3,63.9,98,74,38,29.92,29.81,20,1,20,0.00
2012-7-6,97.4,79.8,67.3,74.2,68.8,63.7,92,72,37,29.90,29.82,8,1,11,0.00
2012-7-7,93.2,80.9,69.7,75.7,72.4,68.7,98,77,52,29.95,29.85,11,1,14,0.00
2012-7-8,92.8,81.3,69.5,75.0,71.7,68.6,98,75,48,29.95,29.79,13,2,18,0.00
2012-7-9,92.2,80.2,69.5,74.8,71.5,68.3,98,77,49,29.87,29.78,13,2,22,0.00
2012-7-10,88.7,77.8,69.3,74.9,70.6,67.2,94,80,56,29.94,29.80,12,2,20,0.16
2012-7-11,85.0,73.5,68.1,73.0,69.8,67.2,98,89,60,29.99,29.89,11,1,18,0.32
2012-7-12,78.8,72.1,69.7,73.0,70.0,68.5,98,93,80,30.02,29.94,7,2,14,1.04
2012-7-13,86.9,74.5,70.7,76.5,71.8,69.9,98,92,65,30.06,29.97,7,1,9,0.37
2012-7-14,88.3,78.4,71.8,75.5,72.7,70.3,98,84,58,30.10,29.98,13,2,17,0.41
2012-7-15,84.9,75.8,71.2,76.9,73.1,70.3,98,92,72,30.11,29.99,12,1,12,0.37
2012-7-16,89.7,76.5,67.7,77.7,72.2,67.1,99,88,57,30.03,29.87,10,1,15,0.34
2012-7-17,87.8,77.3,69.9,78.7,74.0,69.3,99,90,63,29.93,29.83,8,0,10,0.01
2012-7-18,91.5,76.6,69.0,77.0,72.1,67.8,99,88,58,29.94,29.85,15,1,35,0.46
2012-7-19,88.0,78.4,71.2,77.5,73.2,70.6,100,86,60,29.99,29.86,8,2,14,0.00
2012-7-20,83.2,77.0,72.3,76.3,73.1,70.6,98,88,66,29.91,29.84,10,2,18,0.00
2012-7-21,82.6,74.9,70.5,76.4,73.0,68.9,98,94,79,30.01,29.87,7,1,12,0.14
2012-7-22,88.6,78.4,69.1,75.8,71.8,68.5,99,82,54,30.11,30.01,8,2,17,0.00
2012-7-23,91.2,79.9,69.1,77.0,72.2,68.3,99,80,52,30.12,29.97,9,2,14,0.00
2012-7-24,91.7,80.7,70.0,77.5,73.0,69.1,98,79,52,30.00,29.83,7,2,18,0.00
2012-7-25,92.4,81.0,70.7,79.7,74.5,69.8,98,82,58,29.91,29.81,10,1,12,0.00
2012-7-26,91.3,81.3,70.9,77.3,73.7,70.0,98,80,55,29.87,29.76,17,2,17,0.00
2012-7-27,90.9,80.1,71.3,79.5,74.3,70.3,98,83,59,29.88,29.79,17,1,17,0.24
2012-7-28,91.2,78.3,69.3,77.9,72.6,67.8,99,85,51,29.94,29.85,18,1,18,0.06
2012-7-29,90.0,77.6,66.7,72.5,67.8,59.0,98,75,39,29.93,29.84,12,1,12,0.00
2012-7-30,91.5,77.9,66.6,76.8,70.6,65.4,97,80,53,29.89,29.81,12,1,12,0.00
2012-7-31,80.9,75.3,72.5,75.3,72.3,69.6,97,90,81,29.90,29.79,11,0,11,0.12
2012-8-1,92.0,75.3,64.0,77.8,69.5,62.9,99,84,47,29.89,29.76,23,1,23,0.08
2012-8-2,91.7,78.1,64.2,76.8,69.6,62.6,98,77,53,29.85,29.75,14,1,14,0.00
2012-8-3,86.8,77.1,69.6,78.2,72.5,68.4,98,86,68,29.94,29.80,10,0,10,0.00
2012-8-4,77.7,73.6,70.8,75.7,71.9,68.8,98,94,86,30.07,29.93,12,0,12,0.32
2012-8-5,88.5,78.9,72.4,77.6,73.0,70.5,98,84,60,30.13,29.99,12,1,12,0.00
2012-8-6,87.8,78.0,71.7,75.4,72.3,70.2,97,84,61,30.04,29.89,10,1,14,0.00
2012-8-7,83.5,76.9,72.3,76.6,73.5,71.3,98,90,75,29.94,29.85,8,0,8,0.01
2012-8-8,89.5,76.5,69.3,76.7,72.0,68.4,98,87,58,29.94,29.84,14,1,14,0.22
2012-8-9,84.2,72.6,68.7,77.3,70.5,66.6,98,93,76,29.91,29.77,33,1,33,0.80
2012-8-10,82.0,74.5,69.8,75.4,71.1,68.2,97,90,77,29.82,29.72,17,2,17,0.05
2012-8-11,83.7,72.3,62.5,72.0,66.3,60.7,97,83,51,29.87,29.75,13,1,13,0.31
2012-8-12,86.3,70.3,57.8,68.4,62.3,53.5,97,79,37,29.95,29.86,13,1,13,0.01
2012-8-13,81.6,68.1,56.8,69.2,61.6,55.5,97,82,51,29.97,29.88,17,2,17,0.06
2012-8-14,82.6,70.9,61.0,73.5,67.1,59.5,97,89,69,29.93,29.80,24,2,24,0.07
2012-8-15,85.1,73.3,64.9,73.5,68.2,63.7,96,85,59,29.91,29.82,26,2,26,0.34
2012-8-16,87.5,73.5,61.9,70.8,65.4,60.4,96,79,45,29.97,29.83,14,1,14,0.01
2012-8-17,81.2,72.6,66.2,72.1,67.8,64.2,95,85,64,29.93,29.78,16,1,16,0.11
2012-8-18,83.2,72.1,64.6,73.4,67.9,62.8,95,87,65,29.86,29.75,13,1,13,0.15
2012-8-19,79.4,71.7,67.7,71.3,68.1,65.9,94,89,69,29.81,29.74,15,1,15,0.69
2012-8-20,81.9,70.4,60.8,67.4,61.8,55.5,95,77,42,29.89,29.77,12,1,12,0.00
2012-8-21,85.5,69.8,57.8,69.2,62.1,55.8,94,79,48,29.97,29.88,12,1,12,0.00
2012-8-22,84.0,70.5,60.3,71.3,63.1,58.3,95,79,48,30.03,29.95,11,1,11,0.00
2012-8-23,85.9,72.1,61.7,71.9,65.4,59.6,94,81,45,30.06,29.97,12,1,12,0.01
2012-8-24,85.2,73.3,66.2,71.4,67.1,64.1,94,82,52,30.06,29.96,13,1,14,0.36
2012-8-25,84.7,72.0,61.9,70.8,65.3,59.8,94,81,56,30.08,29.98,14,1,14,0.01
2012-8-26,88.0,73.9,63.6,73.7,67.1,61.2,93,81,52,30.09,29.98,11,1,11,0.00
2012-8-27,88.0,75.0,63.6,71.5,66.7,61.2,92,77,53,30.05,29.90,14,1,14,0.00
2012-8-28,78.6,72.9,68.6,73.4,69.3,65.5,92,89,80,29.93,29.86,10,0,10,0.68
2012-8-29,86.5,76.7,71.2,77.4,72.2,68.8,92,87,64,29.93,29.82,16,1,16,0.09
2012-8-30,81.6,76.1,71.2,74.8,72.1,68.4,92,88,79,30.07,29.88,11,1,11,0.00
2012-8-31,85.3,76.6,71.8,76.4,72.0,69.0,92,86,68,30.15,30.04,8,0,8,0.00
2012-9-1,88.2,77.5,69.0,76.1,70.9,66.6,92,81,59,30.09,29.95,17,2,17,0.01
2012-9-2,86.9,76.6,69.8,77.8,72.0,67.0,92,86,66,30.00,29.82,18,1,18,0.02
2012-9-3,81.7,74.7,72.1,73.9,71.1,69.3,92,89,71,29.89,29.81,14,1,14,0.50
2012-9-4,75.5,73.1,71.8,72.7,70.6,69.3,92,92,91,29.85,29.81,11,1,11,0.22
2012-9-5,81.5,75.7,72.3,74.9,71.5,69.8,92,87,73,29.88,29.78,15,1,15,0.01
2012-9-6,88.1,76.5,68.9,75.1,71.0,66.5,92,84,58,29.88,29.79,13,2,13,0.00
2012-9-7,89.2,76.0,65.5,76.1,69.3,63.4,93,81,54,29.90,29.75,11,1,11,0.00
2012-9-8,84.5,73.1,63.5,74.3,68.2,59.7,93,85,64,29.78,29.65,21,2,21,0.03
2012-9-9,80.0,67.2,54.5,61.2,56.2,49.2,94,71,35,29.95,29.75,15,2,15,0.00
2012-9-10,81.8,67.6,55.2,65.4,58.3,53.2,94,75,44,30.06,29.94,13,1,13,0.00
2012-9-11,80.2,67.2,57.6,65.5,59.8,55.6,94,79,48,30.19,30.06,12,1,12,0.00
2012-9-12,80.5,68.4,60.5,64.8,61.2,58.2,94,80,50,30.26,30.14,11,1,11,0.00
2012-9-13,77.7,67.8,60.4,63.5,59.7,56.3,93,77,51,30.25,30.14,12,1,12,0.00
2012-9-14,80.6,68.6,61.9,68.3,62.5,59.2,93,82,56,30.18,30.08,9,0,9,0.00
2012-9-15,84.8,70.3,59.2,69.1,62.4,57.4,94,79,43,30.12,30.00,11,0,11,0.00
2012-9-16,81.3,69.5,64.6,69.7,65.3,62.5,94,88,58,30.02,29.94,11,1,11,0.85
2012-9-17,78.6,70.8,66.4,71.8,67.9,64.3,94,91,77,29.98,29.72,13,1,13,0.25
2012-9-18,75.1,69.8,60.3,69.5,66.7,57.6,94,90,74,29.82,29.61,20,4,20,0.58
2012-9-19,78.2,64.1,51.7,65.7,58.2,50.0,94,83,53,30.00,29.82,12,1,12,0.03
2012-9-20,77.0,66.6,62.2,66.1,62.1,60.1,93,86,65,30.06,29.96,10,1,10,0.01
2012-9-21,80.0,67.2,59.2,67.4,62.3,57.2,94,85,56,30.01,29.89,16,1,16,0.00
2012-9-22,81.8,69.8,58.9,67.5,61.5,48.7,94,77,51,29.97,29.87,21,2,21,0.00
2012-9-23,75.8,61.6,48.7,58.4,47.8,32.5,93,66,22,30.08,29.96,21,2,21,0.00
2012-9-24,75.3,57.1,41.5,56.7,46.9,39.6,93,73,38,30.15,30.07,14,1,14,0.01
2012-9-25,78.8,60.9,47.3,64.6,54.8,45.7,94,82,50,30.17,30.09,14,1,14,0.00
2012-9-26,81.8,65.5,53.9,66.5,59.1,51.9,94,82,52,30.16,30.05,12,1,12,0.01
2012-9-27,83.0,67.4,54.8,68.8,61.0,53.1,95,82,48,30.15,30.02,13,1,13,0.01
2012-9-28,82.8,68.7,58.4,69.3,62.9,57.0,96,84,52,30.06,29.91,13,1,13,0.00
2012-9-29,76.6,67.9,63.0,70.3,64.8,61.2,95,90,71,29.94,29.78,11,1,11,0.05
2012-9-30,71.9,64.0,56.7,65.2,60.8,55.2,96,90,73,29.83,29.74,8,0,8,0.41
2012-10-1,65.5,64.1,62.7,64.0,62.5,60.9,95,95,94,29.74,29.57,18,2,18,3.59
2012-10-2,70.5,66.8,62.7,66.2,64.0,61.1,96,91,77,29.89,29.60,16,2,16,0.93
2012-10-3,72.3,64.4,59.8,64.1,60.7,58.4,96,89,67,30.13,29.89,14,1,14,0.00
2012-10-4,78.9,65.0,55.2,63.5,58.0,53.8,96,81,46,30.19,30.10,13,1,13,0.01
2012-10-5,79.9,63.9,51.9,64.2,57.1,50.5,96,81,47,30.15,29.94,12,1,12,0.01
2012-10-6,78.1,64.9,54.3,65.7,59.6,52.9,97,84,62,29.98,29.83,19,2,19,0.01
2012-10-7,66.8,58.8,52.3,59.3,54.5,49.5,95,86,68,30.00,29.87,18,1,18,0.00
2012-10-8,57.7,54.9,52.1,53.3,50.2,46.5,91,84,76,30.10,29.98,12,1,12,0.00
2012-10-9,65.6,54.8,47.9,54.5,50.0,46.5,95,85,62,30.10,29.99,9,1,11,0.00
2012-10-10,70.0,55.8,44.3,57.4,50.7,43.0,97,85,60,30.11,30.02,22,2,22,0.00
2012-10-11,70.9,56.2,42.5,56.6,49.6,41.2,97,81,47,30.23,30.10,9,1,11,0.01
2012-10-12,73.8,62.8,54.8,63.2,58.2,53.0,95,86,66,30.19,30.11,21,2,21,0.00
2012-10-13,71.0,61.7,56.3,57.6,54.0,51.1,96,77,53,30.32,30.19,16,1,16,0.01
2012-10-14,72.8,63.4,56.6,65.1,58.0,51.1,91,83,75,30.21,29.94,8,1,8,0.00
2012-10-15,71.6,64.5,49.5,63.4,56.2,45.1,95,77,44,29.94,29.78,29,3,29,0.33
2012-10-16,73.7,55.5,43.8,51.8,45.4,32.7,96,74,24,29.92,29.79,11,1,11,0.00
2012-10-17,73.0,57.0,44.4,53.4,48.0,43.1,96,76,40,29.92,29.78,20,1,20,0.00
2012-10-18,68.6,59.6,55.2,64.1,57.1,49.1,95,91,79,29.80,29.70,9,1,9,0.14
2012-10-19,69.0,54.6,41.5,56.5,42.8,32.3,96,71,26,29.76,29.67,32,3,32,0.01
2012-10-20,69.1,53.6,41.9,50.2,45.3,40.3,96,76,45,29.92,29.74,21,2,21,0.00
2012-10-21,76.5,55.9,40.8,55.4,47.5,39.5,97,77,35,30.09,29.92,14,1,14,0.01
2012-10-22,78.5,59.3,45.3,57.9,51.2,44.0,97,78,44,30.17,30.06,12,1,12,0.00
2012-10-23,76.6,60.6,48.8,59.2,52.8,47.6,97,79,46,30.14,30.02,12,1,12,0.00
2012-10-24,80.3,61.3,47.9,59.1,51.1,44.1,97,75,29,30.14,30.00,11,1,11,0.01
2012-10-25,76.6,61.9,49.2,63.3,55.6,47.8,100,81,54,30.07,29.98,14,1,14,0.00
2012-10-26,79.8,68.8,62.4,63.5,60.3,58.1,92,76,50,29.99,29.83,13,1,13,0.00
2012-10-27,73.7,61.9,53.3,62.7,56.4,50.4,95,83,61,29.85,29.65,14,1,14,0.00
2012-10-28,54.8,51.9,46.6,52.2,47.1,37.9,94,84,70,29.76,29.66,27,4,27,0.05
2012-10-29,49.7,47.0,45.2,38.4,35.2,22.0,74,64,36,29.76,29.64,40,10,40,0.00
2012-10-30,52.3,47.0,42.6,32.7,27.7,22.5,62,48,34,29.71,29.56,28,7,28,0.00
2012-10-31,60.4,50.2,41.6,30.3,24.0,18.3,62,37,22,29.80,29.69,30,6,30,0.00
2012-11-1,60.8,49.3,38.5,30.1,23.8,10.4,70,40,15,29.91,29.79,27,6,27,0.00
2012-11-2,72.4,54.5,37.2,47.9,39.3,28.8,84,59,36,29.94,29.82,31,3,31,0.00
2012-11-3,78.6,61.8,46.4,56.9,45.7,36.1,85,58,32,30.01,29.90,13,2,18,0.00
2012-11-4,67.3,58.9,47.4,57.8,50.1,41.5,92,74,51,29.92,29.85,19,2,19,0.00
2012-11-5,63.5,50.1,36.8,41.9,36.2,24.8,93,64,30,30.00,29.89,15,2,15,0.00
2012-11-6,54.9,47.8,43.2,45.4,41.2,37.2,93,78,59,29.96,29.85,19,2,19,0.64
2012-11-7,47.8,43.1,38.0,44.9,40.8,36.6,100,92,78,29.97,29.82,12,1,12,0.24
2012-11-8,63.2,47.0,34.2,46.0,35.9,28.6,97,70,29,30.13,29.97,16,2,16,0.02
2012-11-9,71.3,49.7,33.0,39.8,33.4,23.8,91,61,18,30.24,30.12,13,1,13,0.00
2012-11-10,72.0,51.8,35.3,44.4,36.5,30.5,94,63,22,30.30,30.20,16,2,16,0.00
2012-11-11,66.5,54.5,39.5,53.7,46.9,36.8,91,76,62,30.38,30.26,14,2,14,0.00
2012-11-12,65.1,60.1,49.6,62.0,57.2,45.7,95,90,75,30.26,30.09,15,2,16,0.31
2012-11-13,62.7,49.2,33.6,46.3,36.5,24.1,95,66,25,30.28,30.11,14,2,14,0.00
2012-11-14,52.0,45.9,37.5,37.5,33.5,29.8,84,62,50,30.36,30.22,16,2,16,0.00
2012-11-15,54.4,44.9,39.4,47.6,41.4,36.8,95,88,74,30.25,30.15,10,1,10,0.06
2012-11-16,60.8,45.6,33.8,45.1,39.2,32.5,97,80,49,30.29,30.18,12,1,12,0.00
2012-11-17,63.4,48.1,34.8,37.2,32.7,27.0,93,60,27,30.38,30.28,14,1,14,0.00
2012-11-18,65.0,51.3,40.9,48.8,39.4,26.9,93,65,51,30.35,30.24,16,2,16,0.00
2012-11-19,64.2,50.8,37.2,53.3,45.9,35.6,100,84,64,30.27,30.13,10,0,10,0.01
2012-11-20,68.5,54.4,44.7,52.4,44.1,39.6,96,72,37,30.13,29.97,18,1,18,0.00
2012-11-21,70.5,54.2,41.2,49.8,43.5,38.9,95,70,37,30.10,30.01,15,2,15,0.00
2012-11-22,67.2,51.2,38.6,44.5,40.6,37.0,94,70,39,30.20,30.08,12,2,12,0.00
2012-11-23,69.5,51.4,37.1,52.6,42.0,33.1,95,73,46,30.12,29.94,26,4,26,0.00
2012-11-24,49.6,41.7,31.3,34.0,24.1,16.5,83,52,28,30.08,29.96,23,5,23,0.00
2012-11-25,58.6,40.2,25.8,27.2,19.5,7.7,85,51,14,30.14,30.01,20,2,20,0.00
2012-11-26,67.5,48.3,31.1,38.9,27.2,19.3,82,50,17,30.17,30.07,18,2,18,0.00
2012-11-27,56.6,49.7,40.4,52.6,46.2,37.5,95,88,68,30.14,30.01,15,1,15,0.07
2012-11-28,61.6,45.3,36.2,44.8,33.8,23.6,97,70,25,30.30,30.13,14,1,14,0.01
2012-11-29,59.8,43.5,31.4,44.2,33.9,28.4,92,72,35,30.40,30.28,15,1,15,0.00
2012-11-30,60.9,45.3,33.5,47.9,39.7,31.6,94,82,58,30.35,30.23,16,1,16,0.00
2012-12-1,66.2,52.0,39.7,52.9,45.4,38.4,96,80,53,30.33,30.24,14,1,14,0.00
2012-12-2,69.2,56.6,48.0,56.7,50.0,45.5,94,80,52,30.31,30.18,21,2,21,0.00
2012-12-3,70.3,56.1,43.3,54.8,48.9,42.0,96,79,51,30.26,30.16,18,1,18,0.01
2012-12-4,69.3,56.7,47.3,55.2,51.1,45.6,98,82,58,30.25,30.13,13,1,13,0.00
2012-12-5,63.6,57.6,53.6,60.5,54.9,50.7,96,91,79,30.20,30.03,8,1,8,0.34
2012-12-6,70.3,59.6,54.8,55.0,45.9,35.8,81,61,49,30.23,30.05,13,3,17,0.00
2012-12-7,69.2,55.8,47.8,53.6,49.9,43.0,91,81,54,30.20,29.92,7,1,7,0.00
2012-12-8,67.7,57.8,50.5,56.7,53.9,48.8,96,87,57,30.20,29.92,8,0,8,0.22
2012-12-9,63.5,58.0,53.3,61.0,56.7,52.2,97,95,90,30.03,29.89,6,0,6,0.01
2012-12-10,60.2,58.6,53.0,59.1,57.2,48.8,97,95,87,29.89,29.63,19,2,19,0.68
2012-12-11,52.6,42.8,37.0,48.8,37.5,34.8,94,82,65,30.07,29.72,16,3,16,0.00
2012-12-12,50.9,43.9,37.9,42.2,39.3,36.1,95,84,68,30.20,30.07,9,1,16,0.00
2012-12-13,58.2,47.3,35.8,43.5,39.8,33.7,93,76,53,30.29,30.15,12,1,12,0.00
2012-12-14,58.9,42.0,29.8,37.8,33.7,28.3,95,76,40,30.34,30.17,11,1,11,0.01
2012-12-15,57.8,47.6,37.5,44.6,39.9,34.6,91,76,57,30.19,30.02,9,1,9,0.00
2012-12-16,53.7,52.1,50.1,52.3,49.0,43.2,96,90,74,30.03,29.84,8,0,8,0.87
2012-12-17,57.5,54.3,52.1,56.5,53.2,51.0,97,96,94,29.85,29.61,10,1,10,0.23
2012-12-18,59.0,49.4,35.0,53.3,38.9,22.7,95,71,25,29.94,29.63,30,4,30,0.01
2012-12-19,67.4,49.8,33.5,49.2,42.0,31.8,100,77,48,30.05,29.94,20,2,20,0.00
2012-12-20,49.4,46.3,40.8,48.0,42.8,30.1,95,88,66,30.02,29.60,33,4,33,1.52
2012-12-21,43.4,38.2,33.8,30.8,23.5,16.3,70,56,42,30.05,29.75,34,10,34,0.25
2012-12-22,53.0,41.4,33.9,21.2,13.1,-1.3,53,34,11,30.16,30.05,28,6,28,0.08
2012-12-23,59.4,43.3,27.8,43.1,30.4,16.5,83,63,32,30.14,30.01,24,2,24,0.01
2012-12-24,48.6,46.5,43.2,47.5,44.2,36.9,96,92,70,30.01,29.80,7,0,7,0.83
2012-12-25,51.7,47.4,41.6,49.5,45.8,40.5,97,94,85,29.98,29.72,27,2,27,0.15
2012-12-26,55.0,44.1,36.2,53.6,40.5,29.9,96,87,76,29.82,29.41,36,8,36,1.12
2012-12-27,46.2,37.7,30.7,34.5,31.1,28.7,92,78,60,30.01,29.80,35,5,35,0.00
2012-12-28,50.2,39.6,30.3,38.2,33.7,28.4,94,81,57,30.10,29.88,12,1,12,0.05
2012-12-29,44.4,39.1,34.5,41.7,34.6,24.6,96,84,66,30.12,29.75,32,6,32,0.22
2012-12-30,49.2,36.7,28.8,28.5,25.6,22.3,87,66,35,30.37,30.11,29,5,29,0.00
2012-12-31,51.3,39.7,27.8,37.2,28.9,25.0,100,69,36,30.36,30.10,14,2,14,0.00
2013-1-1,51.3,48.7,43.1,50.2,46.0,35.0,99,90,70,30.10,29.87,10,0,10,1.00